VAF967 LATI-LFRS
Flight info
| Callsign | VAF967 |
|---|---|
| Flight time | 2h 39m |
| Altitude | 36000 |
| Route | DIRES DCT TUPAR UM184 LUGEN |
| Aircraft | A21N/M-SDE2E3FGHIRWXY/LB1 |
Departure
| Time | 2026-04-29 16:03 |
|---|---|
| Airport | Tirana International Airport Mother Teresa (LATI) |
Arrival
| Time | 2026-04-29 18:42 |
|---|---|
| Airport | Nantes Atlantique Airport (LFRS) |
| Time | Latitude | Longitude | Altitude | Speed | Heading |
|---|---|---|---|---|---|
| 2026-04-29 15:04 | 41.41990 | 19.71507 | 137 ft | 0 kts | 265° |
| 2026-04-29 15:47 | 41.41990 | 19.71537 | 137 ft | 4 kts | 283° |
| 2026-04-29 15:47 | 41.41979 | 19.71565 | 137 ft | 4 kts | 327° |
| 2026-04-29 15:47 | 41.41964 | 19.71573 | 137 ft | 0 kts | 354° |
| 2026-04-29 15:56 | 41.42020 | 19.71566 | 137 ft | 19 kts | 354° |
| 2026-04-29 15:56 | 41.42196 | 19.71540 | 137 ft | 28 kts | 354° |
| 2026-04-29 15:57 | 41.42324 | 19.71524 | 137 ft | 16 kts | 356° |
| 2026-04-29 15:57 | 41.42442 | 19.71509 | 137 ft | 18 kts | 354° |
| 2026-04-29 15:57 | 41.42569 | 19.71493 | 137 ft | 19 kts | 353° |
| 2026-04-29 15:57 | 41.42665 | 19.71538 | 137 ft | 17 kts | 75° |
| 2026-04-29 15:58 | 41.42682 | 19.71698 | 136 ft | 18 kts | 85° |
| 2026-04-29 15:58 | 41.42683 | 19.71711 | 136 ft | 0 kts | 84° |
| 2026-04-29 16:00 | 41.42684 | 19.71735 | 136 ft | 9 kts | 85° |
| 2026-04-29 16:01 | 41.42688 | 19.71826 | 132 ft | 11 kts | 88° |
| 2026-04-29 16:01 | 41.42670 | 19.71888 | 130 ft | 0 kts | 199° |
| 2026-04-29 16:01 | 41.42662 | 19.71893 | 131 ft | 2 kts | 144° |
| 2026-04-29 16:01 | 41.42653 | 19.71896 | 131 ft | 0 kts | 178° |
| 2026-04-29 16:02 | 41.42641 | 19.71897 | 131 ft | 16 kts | 176° |
| 2026-04-29 16:02 | 41.42262 | 19.71948 | 126 ft | 91 kts | 174° |
| 2026-04-29 16:03 | 41.41417 | 19.72058 | 133 ft | 151 kts | 174° |
| 2026-04-29 16:03 | 41.40313 | 19.72216 | 557 ft | 157 kts | 173° |
| 2026-04-29 16:03 | 41.39250 | 19.72402 | 1167 ft | 152 kts | 173° |
| 2026-04-29 16:03 | 41.38194 | 19.72505 | 1631 ft | 158 kts | 180° |
| 2026-04-29 16:04 | 41.37027 | 19.72476 | 1993 ft | 178 kts | 179° |
| 2026-04-29 16:04 | 41.35728 | 19.72701 | 2445 ft | 199 kts | 169° |
| 2026-04-29 16:04 | 41.34304 | 19.72990 | 3097 ft | 214 kts | 174° |
| 2026-04-29 16:04 | 41.32783 | 19.73150 | 3818 ft | 227 kts | 174° |
| 2026-04-29 16:05 | 41.31135 | 19.73372 | 4401 ft | 247 kts | 173° |
| 2026-04-29 16:05 | 41.29359 | 19.73645 | 5003 ft | 266 kts | 173° |
| 2026-04-29 16:05 | 41.27484 | 19.73952 | 5716 ft | 276 kts | 173° |
| 2026-04-29 16:05 | 41.25572 | 19.74169 | 6716 ft | 273 kts | 180° |
| 2026-04-29 16:06 | 41.23734 | 19.73592 | 7575 ft | 278 kts | 210° |
| 2026-04-29 16:06 | 41.22303 | 19.71851 | 8382 ft | 282 kts | 234° |
| 2026-04-29 16:06 | 41.21416 | 19.69533 | 9281 ft | 284 kts | 252° |
| 2026-04-29 16:06 | 41.20811 | 19.67029 | 10181 ft | 287 kts | 250° |
| 2026-04-29 16:07 | 41.20070 | 19.64533 | 10899 ft | 298 kts | 247° |
| 2026-04-29 16:07 | 41.19518 | 19.62817 | 11161 ft | 312 kts | 247° |
| 2026-04-29 16:07 | 41.18341 | 19.59161 | 11929 ft | 328 kts | 247° |
| 2026-04-29 16:07 | 41.17448 | 19.56354 | 12743 ft | 332 kts | 248° |
| 2026-04-29 16:08 | 41.16556 | 19.53515 | 13561 ft | 335 kts | 248° |
| 2026-04-29 16:08 | 41.15659 | 19.50647 | 14348 ft | 338 kts | 248° |
| 2026-04-29 16:08 | 41.14755 | 19.47755 | 15116 ft | 341 kts | 248° |
| 2026-04-29 16:08 | 41.13838 | 19.44831 | 15864 ft | 345 kts | 248° |
| 2026-04-29 16:09 | 41.12911 | 19.41878 | 16598 ft | 348 kts | 248° |
| 2026-04-29 16:09 | 41.11977 | 19.38901 | 17303 ft | 351 kts | 249° |
| 2026-04-29 16:09 | 41.11031 | 19.35898 | 17981 ft | 355 kts | 249° |
| 2026-04-29 16:09 | 41.10073 | 19.32865 | 18658 ft | 358 kts | 249° |
| 2026-04-29 16:10 | 41.09108 | 19.29805 | 19301 ft | 361 kts | 249° |
| 2026-04-29 16:10 | 41.08135 | 19.26722 | 19922 ft | 365 kts | 249° |
| 2026-04-29 16:10 | 41.07180 | 19.23592 | 20522 ft | 367 kts | 252° |
| 2026-04-29 16:10 | 41.06653 | 19.20282 | 21090 ft | 369 kts | 267° |
| 2026-04-29 16:11 | 41.06868 | 19.16895 | 21640 ft | 371 kts | 284° |
| 2026-04-29 16:11 | 41.07789 | 19.13735 | 22180 ft | 374 kts | 296° |
| 2026-04-29 16:11 | 41.09005 | 19.10667 | 22725 ft | 378 kts | 297° |
| 2026-04-29 16:11 | 41.10248 | 19.07581 | 23266 ft | 380 kts | 297° |
| 2026-04-29 16:12 | 41.11477 | 19.04462 | 23789 ft | 383 kts | 297° |
| 2026-04-29 16:12 | 41.12306 | 19.02328 | 24125 ft | 385 kts | 296° |
| 2026-04-29 16:12 | 41.13932 | 18.98112 | 24786 ft | 390 kts | 296° |
| 2026-04-29 16:12 | 41.15172 | 18.94892 | 25258 ft | 392 kts | 296° |
| 2026-04-29 16:13 | 41.16416 | 18.91653 | 25724 ft | 395 kts | 296° |
| 2026-04-29 16:13 | 41.17668 | 18.88401 | 26188 ft | 397 kts | 296° |
| 2026-04-29 16:13 | 41.18930 | 18.85125 | 26624 ft | 400 kts | 296° |
| 2026-04-29 16:13 | 41.20195 | 18.81831 | 27047 ft | 402 kts | 296° |
| 2026-04-29 16:14 | 41.21037 | 18.79634 | 27318 ft | 404 kts | 296° |
| 2026-04-29 16:14 | 41.22313 | 18.76300 | 27720 ft | 406 kts | 296° |
| 2026-04-29 16:14 | 41.23591 | 18.72945 | 28107 ft | 408 kts | 296° |
| 2026-04-29 16:14 | 41.25306 | 18.68479 | 28609 ft | 411 kts | 296° |
| 2026-04-29 16:15 | 41.26603 | 18.65089 | 28978 ft | 412 kts | 296° |
| 2026-04-29 16:15 | 41.27480 | 18.62790 | 29201 ft | 414 kts | 296° |
| 2026-04-29 16:15 | 41.28783 | 18.59371 | 29542 ft | 416 kts | 296° |
| 2026-04-29 16:15 | 41.30075 | 18.55968 | 29875 ft | 417 kts | 296° |
| 2026-04-29 16:16 | 41.31387 | 18.52516 | 30204 ft | 419 kts | 296° |
| 2026-04-29 16:16 | 41.32705 | 18.49047 | 30511 ft | 421 kts | 296° |
| 2026-04-29 16:16 | 41.34026 | 18.45566 | 30827 ft | 423 kts | 296° |
| 2026-04-29 16:16 | 41.35354 | 18.42054 | 31129 ft | 425 kts | 296° |
| 2026-04-29 16:17 | 41.36684 | 18.38534 | 31430 ft | 426 kts | 296° |
| 2026-04-29 16:17 | 41.38020 | 18.34996 | 31717 ft | 428 kts | 296° |
| 2026-04-29 16:17 | 41.39360 | 18.31440 | 31996 ft | 430 kts | 296° |
| 2026-04-29 16:17 | 41.40699 | 18.27874 | 32336 ft | 430 kts | 296° |
| 2026-04-29 16:18 | 41.42035 | 18.24323 | 32708 ft | 428 kts | 296° |
| 2026-04-29 16:18 | 41.43368 | 18.20771 | 33065 ft | 427 kts | 296° |
| 2026-04-29 16:18 | 41.44695 | 18.17237 | 33384 ft | 427 kts | 296° |
| 2026-04-29 16:18 | 41.46022 | 18.13699 | 33697 ft | 426 kts | 296° |
| 2026-04-29 16:19 | 41.47344 | 18.10169 | 33978 ft | 425 kts | 296° |
| 2026-04-29 16:19 | 41.48664 | 18.06638 | 34257 ft | 425 kts | 296° |
| 2026-04-29 16:19 | 41.49980 | 18.03112 | 34515 ft | 424 kts | 296° |
| 2026-04-29 16:19 | 41.51295 | 17.99585 | 34766 ft | 424 kts | 296° |
| 2026-04-29 16:20 | 41.52607 | 17.96063 | 35010 ft | 424 kts | 296° |
| 2026-04-29 16:20 | 41.53914 | 17.92543 | 35248 ft | 423 kts | 296° |
| 2026-04-29 16:20 | 41.55205 | 17.89068 | 35469 ft | 423 kts | 296° |
| 2026-04-29 16:20 | 41.56512 | 17.85547 | 35692 ft | 423 kts | 295° |
| 2026-04-29 16:21 | 41.57812 | 17.82031 | 35912 ft | 422 kts | 296° |
| 2026-04-29 16:21 | 41.59117 | 17.78506 | 36058 ft | 423 kts | 296° |
| 2026-04-29 16:21 | 41.60418 | 17.74983 | 36070 ft | 423 kts | 296° |
| 2026-04-29 16:22 | 41.63021 | 17.67929 | 36033 ft | 423 kts | 295° |
| 2026-04-29 16:22 | 41.65619 | 17.60867 | 36021 ft | 423 kts | 295° |
| 2026-04-29 16:23 | 41.68214 | 17.53801 | 36020 ft | 423 kts | 295° |
| 2026-04-29 16:23 | 41.70803 | 17.46728 | 36021 ft | 423 kts | 295° |
| 2026-04-29 16:24 | 41.73391 | 17.39642 | 36021 ft | 423 kts | 295° |
| 2026-04-29 16:24 | 41.75973 | 17.32557 | 36020 ft | 424 kts | 295° |
| 2026-04-29 16:25 | 41.78554 | 17.25462 | 36021 ft | 424 kts | 295° |
| 2026-04-29 16:25 | 41.81122 | 17.18378 | 36020 ft | 425 kts | 295° |
| 2026-04-29 16:26 | 41.83704 | 17.11237 | 36020 ft | 425 kts | 295° |
| 2026-04-29 16:26 | 41.86281 | 17.04090 | 36020 ft | 426 kts | 295° |
| 2026-04-29 16:27 | 41.88861 | 16.96928 | 36020 ft | 426 kts | 295° |
| 2026-04-29 16:27 | 41.91429 | 16.89764 | 36021 ft | 426 kts | 295° |
| 2026-04-29 16:28 | 41.93998 | 16.82589 | 36029 ft | 426 kts | 295° |
| 2026-04-29 16:28 | 41.96564 | 16.75404 | 36030 ft | 426 kts | 295° |
| 2026-04-29 16:29 | 41.99122 | 16.68229 | 36021 ft | 426 kts | 295° |
| 2026-04-29 16:29 | 42.01673 | 16.61048 | 36013 ft | 425 kts | 295° |
| 2026-04-29 16:30 | 42.04210 | 16.53886 | 36010 ft | 424 kts | 295° |
| 2026-04-29 16:30 | 42.06741 | 16.46722 | 36010 ft | 424 kts | 295° |
| 2026-04-29 16:31 | 42.09273 | 16.39543 | 36011 ft | 424 kts | 295° |
| 2026-04-29 16:31 | 42.11802 | 16.32348 | 36008 ft | 425 kts | 294° |
| 2026-04-29 16:32 | 42.14318 | 16.25150 | 36010 ft | 425 kts | 294° |
| 2026-04-29 16:32 | 42.16841 | 16.17940 | 36008 ft | 425 kts | 294° |
| 2026-04-29 16:33 | 42.20606 | 16.07168 | 36011 ft | 425 kts | 294° |
| 2026-04-29 16:33 | 42.23117 | 15.99941 | 36018 ft | 425 kts | 294° |
| 2026-04-29 16:34 | 42.25627 | 15.92700 | 36012 ft | 426 kts | 294° |
| 2026-04-29 16:34 | 42.28130 | 15.85464 | 36014 ft | 425 kts | 294° |
| 2026-04-29 16:35 | 42.30629 | 15.78221 | 36011 ft | 425 kts | 294° |
| 2026-04-29 16:35 | 42.33122 | 15.70976 | 36011 ft | 425 kts | 294° |
| 2026-04-29 16:36 | 42.35602 | 15.63737 | 36002 ft | 424 kts | 294° |
| 2026-04-29 16:36 | 42.38069 | 15.56535 | 36005 ft | 424 kts | 294° |
| 2026-04-29 16:37 | 42.40539 | 15.49306 | 36011 ft | 424 kts | 294° |
| 2026-04-29 16:37 | 42.42590 | 15.43276 | 36023 ft | 424 kts | 294° |
| 2026-04-29 16:38 | 42.45466 | 15.34803 | 36013 ft | 424 kts | 294° |
| 2026-04-29 16:38 | 42.47924 | 15.27546 | 36019 ft | 424 kts | 294° |
| 2026-04-29 16:39 | 42.50377 | 15.20288 | 36020 ft | 423 kts | 294° |
| 2026-04-29 16:39 | 42.52822 | 15.13020 | 36021 ft | 423 kts | 294° |
| 2026-04-29 16:40 | 42.55244 | 15.05804 | 36022 ft | 423 kts | 294° |
| 2026-04-29 16:40 | 42.57684 | 14.98529 | 36020 ft | 423 kts | 294° |
| 2026-04-29 16:41 | 42.60114 | 14.91253 | 36020 ft | 423 kts | 293° |
| 2026-04-29 16:41 | 42.62543 | 14.83962 | 36021 ft | 424 kts | 293° |
| 2026-04-29 16:42 | 42.64970 | 14.76659 | 36021 ft | 424 kts | 293° |
| 2026-04-29 16:42 | 42.67383 | 14.69353 | 36021 ft | 424 kts | 293° |
| 2026-04-29 16:43 | 42.69800 | 14.62036 | 36021 ft | 424 kts | 293° |
| 2026-04-29 16:43 | 42.72212 | 14.54718 | 36021 ft | 424 kts | 293° |
| 2026-04-29 16:44 | 42.74622 | 14.47389 | 36020 ft | 423 kts | 293° |
| 2026-04-29 16:44 | 42.77007 | 14.40120 | 36021 ft | 423 kts | 293° |
| 2026-04-29 16:45 | 42.79406 | 14.32795 | 36023 ft | 423 kts | 293° |
| 2026-04-29 16:45 | 42.81789 | 14.25462 | 36032 ft | 422 kts | 293° |
| 2026-04-29 16:46 | 42.84164 | 14.18145 | 36030 ft | 422 kts | 293° |
| 2026-04-29 16:46 | 42.86541 | 14.10806 | 36029 ft | 423 kts | 293° |
| 2026-04-29 16:47 | 42.88916 | 14.03460 | 36030 ft | 423 kts | 293° |
| 2026-04-29 16:47 | 42.91293 | 13.96107 | 36029 ft | 424 kts | 293° |
| 2026-04-29 16:48 | 42.93664 | 13.88738 | 36043 ft | 424 kts | 292° |
| 2026-04-29 16:48 | 42.96011 | 13.81410 | 36037 ft | 424 kts | 292° |
| 2026-04-29 16:49 | 42.98389 | 13.73983 | 36038 ft | 424 kts | 292° |
| 2026-04-29 16:49 | 43.00739 | 13.66654 | 36036 ft | 424 kts | 292° |
| 2026-04-29 16:50 | 43.03098 | 13.59259 | 36045 ft | 424 kts | 292° |
| 2026-04-29 16:50 | 43.05445 | 13.51863 | 36052 ft | 424 kts | 292° |
| 2026-04-29 16:51 | 43.07783 | 13.44460 | 36052 ft | 424 kts | 292° |
| 2026-04-29 16:51 | 43.10121 | 13.37053 | 36052 ft | 424 kts | 292° |
| 2026-04-29 16:52 | 43.12453 | 13.29640 | 36039 ft | 424 kts | 292° |
| 2026-04-29 16:52 | 43.14769 | 13.22262 | 36038 ft | 424 kts | 292° |
| 2026-04-29 16:53 | 43.17089 | 13.14840 | 36038 ft | 424 kts | 292° |
| 2026-04-29 16:53 | 43.19407 | 13.07414 | 36037 ft | 423 kts | 292° |
| 2026-04-29 16:54 | 43.21717 | 12.99993 | 36036 ft | 423 kts | 292° |
| 2026-04-29 16:54 | 43.24018 | 12.92563 | 36036 ft | 423 kts | 292° |
| 2026-04-29 16:55 | 43.26324 | 12.85112 | 36033 ft | 424 kts | 292° |
| 2026-04-29 16:55 | 43.28616 | 12.77674 | 36031 ft | 423 kts | 292° |
| 2026-04-29 16:56 | 43.30893 | 12.70260 | 36030 ft | 423 kts | 292° |
| 2026-04-29 16:56 | 43.33179 | 12.62799 | 36029 ft | 423 kts | 292° |
| 2026-04-29 16:57 | 43.35466 | 12.55330 | 36029 ft | 424 kts | 292° |
| 2026-04-29 16:57 | 43.37740 | 12.47860 | 36029 ft | 423 kts | 292° |
| 2026-04-29 16:58 | 43.40017 | 12.40391 | 36036 ft | 424 kts | 292° |
| 2026-04-29 16:58 | 43.42285 | 12.32908 | 36037 ft | 424 kts | 292° |
| 2026-04-29 16:59 | 43.44551 | 12.25419 | 36036 ft | 424 kts | 292° |
| 2026-04-29 16:59 | 43.46791 | 12.17975 | 36037 ft | 424 kts | 292° |
| 2026-04-29 17:00 | 43.49045 | 12.10474 | 36036 ft | 424 kts | 291° |
| 2026-04-29 17:00 | 43.51294 | 12.02975 | 36034 ft | 423 kts | 291° |
| 2026-04-29 17:01 | 43.53529 | 11.95481 | 36023 ft | 423 kts | 291° |
| 2026-04-29 17:01 | 43.55389 | 11.89240 | 36022 ft | 423 kts | 291° |
| 2026-04-29 17:02 | 43.57619 | 11.81734 | 36018 ft | 423 kts | 291° |
| 2026-04-29 17:02 | 43.59845 | 11.74229 | 36021 ft | 423 kts | 291° |
| 2026-04-29 17:03 | 43.62065 | 11.66712 | 36015 ft | 423 kts | 291° |
| 2026-04-29 17:03 | 43.64280 | 11.59184 | 36012 ft | 424 kts | 291° |
| 2026-04-29 17:04 | 43.66496 | 11.51639 | 36012 ft | 424 kts | 291° |
| 2026-04-29 17:04 | 43.68708 | 11.44091 | 36008 ft | 424 kts | 291° |
| 2026-04-29 17:05 | 43.70898 | 11.36580 | 35997 ft | 424 kts | 291° |
| 2026-04-29 17:05 | 43.73095 | 11.29017 | 35997 ft | 424 kts | 291° |
| 2026-04-29 17:06 | 43.75299 | 11.21436 | 35990 ft | 424 kts | 291° |
| 2026-04-29 17:06 | 43.77491 | 11.13854 | 35991 ft | 425 kts | 291° |
| 2026-04-29 17:07 | 43.79679 | 11.06271 | 35998 ft | 424 kts | 291° |
| 2026-04-29 17:07 | 43.81864 | 10.98673 | 36007 ft | 424 kts | 291° |
| 2026-04-29 17:08 | 43.84045 | 10.91072 | 36023 ft | 424 kts | 291° |
| 2026-04-29 17:08 | 43.86218 | 10.83468 | 36049 ft | 424 kts | 291° |
| 2026-04-29 17:09 | 43.88384 | 10.75858 | 36064 ft | 424 kts | 291° |
| 2026-04-29 17:09 | 43.90543 | 10.68259 | 36084 ft | 424 kts | 290° |
| 2026-04-29 17:10 | 43.92683 | 10.60703 | 36098 ft | 424 kts | 290° |
| 2026-04-29 17:10 | 43.94834 | 10.53081 | 36099 ft | 424 kts | 290° |
| 2026-04-29 17:11 | 43.96983 | 10.45452 | 36099 ft | 424 kts | 290° |
| 2026-04-29 17:11 | 43.99123 | 10.37814 | 36097 ft | 424 kts | 290° |
| 2026-04-29 17:12 | 44.01254 | 10.30173 | 36091 ft | 424 kts | 290° |
| 2026-04-29 17:12 | 44.03027 | 10.23822 | 36076 ft | 424 kts | 290° |
| 2026-04-29 17:13 | 44.05513 | 10.14883 | 36058 ft | 424 kts | 290° |
| 2026-04-29 17:13 | 44.07621 | 10.07278 | 36036 ft | 425 kts | 290° |
| 2026-04-29 17:14 | 44.09739 | 9.99605 | 36030 ft | 424 kts | 290° |
| 2026-04-29 17:14 | 44.11852 | 9.91941 | 36022 ft | 424 kts | 290° |
| 2026-04-29 17:15 | 44.13958 | 9.84266 | 36029 ft | 424 kts | 290° |
| 2026-04-29 17:15 | 44.16055 | 9.76595 | 36023 ft | 424 kts | 290° |
| 2026-04-29 17:16 | 44.18148 | 9.68924 | 36029 ft | 423 kts | 290° |
| 2026-04-29 17:16 | 44.20236 | 9.61251 | 36021 ft | 423 kts | 290° |
| 2026-04-29 17:17 | 44.22318 | 9.53580 | 36026 ft | 423 kts | 290° |
| 2026-04-29 17:17 | 44.24394 | 9.45907 | 36030 ft | 423 kts | 290° |
| 2026-04-29 17:18 | 44.26463 | 9.38220 | 36030 ft | 423 kts | 290° |
| 2026-04-29 17:18 | 44.28531 | 9.30523 | 36030 ft | 423 kts | 290° |
| 2026-04-29 17:19 | 44.30587 | 9.22838 | 36031 ft | 423 kts | 290° |
| 2026-04-29 17:19 | 44.32642 | 9.15142 | 36034 ft | 423 kts | 290° |
| 2026-04-29 17:20 | 44.34676 | 9.07487 | 36029 ft | 423 kts | 290° |
| 2026-04-29 17:20 | 44.36720 | 8.99775 | 36021 ft | 423 kts | 290° |
| 2026-04-29 17:21 | 44.38759 | 8.92059 | 36020 ft | 423 kts | 290° |
| 2026-04-29 17:21 | 44.40795 | 8.84324 | 36020 ft | 423 kts | 290° |
| 2026-04-29 17:22 | 44.42827 | 8.76591 | 36022 ft | 423 kts | 290° |
| 2026-04-29 17:22 | 44.44853 | 8.68845 | 36023 ft | 423 kts | 290° |
| 2026-04-29 17:23 | 44.46853 | 8.61164 | 36043 ft | 423 kts | 290° |
| 2026-04-29 17:23 | 44.48869 | 8.53418 | 36065 ft | 423 kts | 290° |
| 2026-04-29 17:24 | 44.50878 | 8.45664 | 36051 ft | 423 kts | 290° |
| 2026-04-29 17:24 | 44.52879 | 8.37906 | 36037 ft | 423 kts | 289° |
| 2026-04-29 17:25 | 44.54877 | 8.30139 | 36056 ft | 423 kts | 289° |
| 2026-04-29 17:25 | 44.56870 | 8.22368 | 36055 ft | 423 kts | 289° |
| 2026-04-29 17:26 | 44.58845 | 8.14650 | 36036 ft | 423 kts | 289° |
| 2026-04-29 17:26 | 44.60831 | 8.06858 | 36053 ft | 423 kts | 289° |
| 2026-04-29 17:27 | 44.62806 | 7.99076 | 36058 ft | 424 kts | 289° |
| 2026-04-29 17:27 | 44.64780 | 7.91275 | 36060 ft | 423 kts | 289° |
| 2026-04-29 17:28 | 44.66746 | 7.83481 | 36055 ft | 423 kts | 289° |
| 2026-04-29 17:28 | 44.68709 | 7.75672 | 36058 ft | 423 kts | 289° |
| 2026-04-29 17:29 | 44.70663 | 7.67874 | 36061 ft | 423 kts | 289° |
| 2026-04-29 17:29 | 44.72286 | 7.61386 | 36059 ft | 423 kts | 289° |
| 2026-04-29 17:30 | 44.74543 | 7.52311 | 36058 ft | 423 kts | 289° |
| 2026-04-29 17:30 | 44.76479 | 7.44502 | 36058 ft | 423 kts | 289° |
| 2026-04-29 17:31 | 44.78411 | 7.36686 | 36048 ft | 422 kts | 289° |
| 2026-04-29 17:31 | 44.80337 | 7.28867 | 36046 ft | 422 kts | 289° |
| 2026-04-29 17:32 | 44.82255 | 7.21056 | 36050 ft | 422 kts | 289° |
| 2026-04-29 17:32 | 44.84167 | 7.13242 | 36054 ft | 422 kts | 289° |
| 2026-04-29 17:33 | 44.86060 | 7.05464 | 36061 ft | 421 kts | 289° |
| 2026-04-29 17:33 | 44.87960 | 6.97643 | 36053 ft | 421 kts | 289° |
| 2026-04-29 17:34 | 44.89852 | 6.89819 | 36042 ft | 421 kts | 289° |
| 2026-04-29 17:34 | 44.91746 | 6.81986 | 36044 ft | 421 kts | 289° |
| 2026-04-29 17:35 | 44.94553 | 6.70299 | 36047 ft | 421 kts | 289° |
| 2026-04-29 17:36 | 44.96426 | 6.62465 | 36053 ft | 421 kts | 288° |
| 2026-04-29 17:36 | 44.98293 | 6.54637 | 36038 ft | 421 kts | 288° |
| 2026-04-29 17:37 | 45.00158 | 6.46784 | 36034 ft | 421 kts | 288° |
| 2026-04-29 17:37 | 45.02013 | 6.38944 | 36030 ft | 420 kts | 288° |
| 2026-04-29 17:38 | 45.03852 | 6.31145 | 36033 ft | 421 kts | 288° |
| 2026-04-29 17:38 | 45.05695 | 6.23302 | 36029 ft | 421 kts | 288° |
| 2026-04-29 17:39 | 45.07534 | 6.15440 | 36030 ft | 421 kts | 288° |
| 2026-04-29 17:39 | 45.09367 | 6.07576 | 36025 ft | 420 kts | 288° |
| 2026-04-29 17:40 | 45.11190 | 5.99724 | 36020 ft | 420 kts | 288° |
| 2026-04-29 17:40 | 45.13014 | 5.91868 | 36021 ft | 420 kts | 288° |
| 2026-04-29 17:41 | 45.14831 | 5.83992 | 36021 ft | 420 kts | 288° |
| 2026-04-29 17:41 | 45.16642 | 5.76116 | 36020 ft | 420 kts | 288° |
| 2026-04-29 17:42 | 45.18449 | 5.68233 | 36019 ft | 420 kts | 288° |
| 2026-04-29 17:42 | 45.20248 | 5.60353 | 36017 ft | 420 kts | 288° |
| 2026-04-29 17:43 | 45.22041 | 5.52467 | 36023 ft | 420 kts | 288° |
| 2026-04-29 17:43 | 45.23819 | 5.44622 | 36022 ft | 420 kts | 288° |
| 2026-04-29 17:44 | 45.25602 | 5.36719 | 36019 ft | 421 kts | 288° |
| 2026-04-29 17:44 | 45.27381 | 5.28809 | 36019 ft | 421 kts | 288° |
| 2026-04-29 17:45 | 45.29160 | 5.20879 | 36019 ft | 421 kts | 287° |
| 2026-04-29 17:45 | 45.30930 | 5.12952 | 36020 ft | 421 kts | 287° |
| 2026-04-29 17:46 | 45.32697 | 5.05010 | 36020 ft | 421 kts | 287° |
| 2026-04-29 17:46 | 45.34458 | 4.97066 | 36012 ft | 421 kts | 287° |
| 2026-04-29 17:47 | 45.36211 | 4.89124 | 36007 ft | 421 kts | 287° |
| 2026-04-29 17:47 | 45.37960 | 4.81178 | 36004 ft | 421 kts | 287° |
| 2026-04-29 17:48 | 45.39692 | 4.73266 | 36002 ft | 421 kts | 287° |
| 2026-04-29 17:48 | 45.41428 | 4.65314 | 35999 ft | 421 kts | 287° |
| 2026-04-29 17:49 | 45.43161 | 4.57335 | 36005 ft | 422 kts | 287° |
| 2026-04-29 17:49 | 45.44892 | 4.49359 | 36001 ft | 422 kts | 287° |
| 2026-04-29 17:50 | 45.46619 | 4.41365 | 35998 ft | 422 kts | 287° |
| 2026-04-29 17:50 | 45.48047 | 4.34719 | 36000 ft | 422 kts | 287° |
| 2026-04-29 17:51 | 45.49762 | 4.26724 | 35987 ft | 422 kts | 287° |
| 2026-04-29 17:51 | 45.51470 | 4.18730 | 35991 ft | 422 kts | 286° |
| 2026-04-29 17:52 | 45.53172 | 4.10715 | 36002 ft | 421 kts | 287° |
| 2026-04-29 17:52 | 45.54869 | 4.02709 | 35996 ft | 422 kts | 286° |
| 2026-04-29 17:53 | 45.56576 | 3.94604 | 35997 ft | 422 kts | 286° |
| 2026-04-29 17:53 | 45.58247 | 3.86667 | 35998 ft | 422 kts | 286° |
| 2026-04-29 17:54 | 45.59927 | 3.78623 | 35999 ft | 422 kts | 286° |
| 2026-04-29 17:54 | 45.61601 | 3.70595 | 36000 ft | 422 kts | 286° |
| 2026-04-29 17:55 | 45.63273 | 3.62555 | 35992 ft | 422 kts | 286° |
| 2026-04-29 17:55 | 45.64936 | 3.54507 | 35988 ft | 422 kts | 286° |
| 2026-04-29 17:56 | 45.66592 | 3.46451 | 35979 ft | 422 kts | 286° |
| 2026-04-29 17:56 | 45.68245 | 3.38399 | 35975 ft | 423 kts | 285° |
| 2026-04-29 17:57 | 45.69893 | 3.30366 | 35969 ft | 423 kts | 285° |
| 2026-04-29 17:57 | 45.71541 | 3.22285 | 35971 ft | 423 kts | 285° |
| 2026-04-29 17:58 | 45.73183 | 3.14187 | 35963 ft | 423 kts | 285° |
| 2026-04-29 17:58 | 45.74820 | 3.06080 | 35960 ft | 424 kts | 285° |
| 2026-04-29 17:59 | 45.76451 | 2.97965 | 35969 ft | 424 kts | 285° |
| 2026-04-29 17:59 | 45.78077 | 2.89836 | 35970 ft | 425 kts | 285° |
| 2026-04-29 18:00 | 45.79701 | 2.81697 | 35970 ft | 425 kts | 285° |
| 2026-04-29 18:00 | 45.81313 | 2.73586 | 35970 ft | 425 kts | 285° |
| 2026-04-29 18:01 | 45.82926 | 2.65433 | 35970 ft | 425 kts | 285° |
| 2026-04-29 18:01 | 45.84535 | 2.57274 | 35970 ft | 425 kts | 284° |
| 2026-04-29 18:02 | 45.86134 | 2.49113 | 35971 ft | 425 kts | 284° |
| 2026-04-29 18:02 | 45.87729 | 2.40952 | 35971 ft | 425 kts | 284° |
| 2026-04-29 18:03 | 45.89318 | 2.32784 | 35964 ft | 424 kts | 284° |
| 2026-04-29 18:03 | 45.90892 | 2.24666 | 35963 ft | 425 kts | 284° |
| 2026-04-29 18:04 | 45.92471 | 2.16481 | 35954 ft | 425 kts | 283° |
| 2026-04-29 18:04 | 45.94034 | 2.08316 | 35951 ft | 424 kts | 284° |
| 2026-04-29 18:05 | 45.95601 | 2.00130 | 35959 ft | 426 kts | 284° |
| 2026-04-29 18:05 | 45.97169 | 1.91907 | 35960 ft | 427 kts | 284° |
| 2026-04-29 18:06 | 45.98732 | 1.83666 | 35952 ft | 427 kts | 284° |
| 2026-04-29 18:06 | 46.00287 | 1.75427 | 35951 ft | 427 kts | 284° |
| 2026-04-29 18:07 | 46.01839 | 1.67169 | 35951 ft | 427 kts | 284° |
| 2026-04-29 18:07 | 46.03382 | 1.58916 | 35943 ft | 426 kts | 284° |
| 2026-04-29 18:08 | 46.04908 | 1.50721 | 35940 ft | 427 kts | 284° |
| 2026-04-29 18:08 | 46.06441 | 1.42464 | 35940 ft | 427 kts | 284° |
| 2026-04-29 18:09 | 46.07967 | 1.34199 | 35941 ft | 427 kts | 284° |
| 2026-04-29 18:09 | 46.09486 | 1.25934 | 35941 ft | 427 kts | 283° |
| 2026-04-29 18:10 | 46.11001 | 1.17657 | 35940 ft | 427 kts | 283° |
| 2026-04-29 18:10 | 46.12506 | 1.09390 | 35940 ft | 426 kts | 283° |
| 2026-04-29 18:11 | 46.13994 | 1.01197 | 35861 ft | 416 kts | 283° |
| 2026-04-29 18:11 | 46.14724 | 0.97157 | 35606 ft | 419 kts | 283° |
| 2026-04-29 18:11 | 46.15457 | 0.93085 | 35372 ft | 420 kts | 283° |
| 2026-04-29 18:11 | 46.16190 | 0.89014 | 35126 ft | 419 kts | 283° |
| 2026-04-29 18:12 | 46.16920 | 0.84946 | 34881 ft | 418 kts | 283° |
| 2026-04-29 18:12 | 46.17645 | 0.80897 | 34627 ft | 416 kts | 283° |
| 2026-04-29 18:12 | 46.18366 | 0.76857 | 34352 ft | 414 kts | 283° |
| 2026-04-29 18:12 | 46.19081 | 0.72846 | 33975 ft | 410 kts | 283° |
| 2026-04-29 18:13 | 46.19787 | 0.68878 | 33540 ft | 406 kts | 283° |
| 2026-04-29 18:13 | 46.20486 | 0.64944 | 33084 ft | 403 kts | 283° |
| 2026-04-29 18:13 | 46.21181 | 0.61029 | 32636 ft | 400 kts | 283° |
| 2026-04-29 18:13 | 46.21868 | 0.57145 | 32166 ft | 398 kts | 283° |
| 2026-04-29 18:14 | 46.22549 | 0.53284 | 31696 ft | 396 kts | 283° |
| 2026-04-29 18:14 | 46.23216 | 0.49492 | 31231 ft | 394 kts | 283° |
| 2026-04-29 18:14 | 46.23888 | 0.45661 | 30768 ft | 392 kts | 282° |
| 2026-04-29 18:14 | 46.24555 | 0.41858 | 30329 ft | 390 kts | 283° |
| 2026-04-29 18:15 | 46.25217 | 0.38072 | 29892 ft | 387 kts | 282° |
| 2026-04-29 18:15 | 46.25873 | 0.34311 | 29428 ft | 386 kts | 283° |
| 2026-04-29 18:15 | 46.26526 | 0.30563 | 28973 ft | 384 kts | 282° |
| 2026-04-29 18:15 | 46.27176 | 0.26822 | 28521 ft | 382 kts | 282° |
| 2026-04-29 18:16 | 46.27819 | 0.23114 | 28082 ft | 380 kts | 283° |
| 2026-04-29 18:16 | 46.28459 | 0.19418 | 27649 ft | 377 kts | 282° |
| 2026-04-29 18:16 | 46.29091 | 0.15755 | 27215 ft | 375 kts | 282° |
| 2026-04-29 18:16 | 46.29719 | 0.12106 | 26765 ft | 373 kts | 282° |
| 2026-04-29 18:17 | 46.30346 | 0.08459 | 26311 ft | 372 kts | 282° |
| 2026-04-29 18:17 | 46.30967 | 0.04844 | 25880 ft | 370 kts | 282° |
| 2026-04-29 18:17 | 46.31583 | 0.01246 | 25465 ft | 367 kts | 282° |
| 2026-04-29 18:17 | 46.32187 | -0.02291 | 25064 ft | 365 kts | 282° |
| 2026-04-29 18:18 | 46.32793 | -0.05850 | 24634 ft | 363 kts | 282° |
| 2026-04-29 18:18 | 46.33394 | -0.09388 | 24214 ft | 362 kts | 282° |
| 2026-04-29 18:18 | 46.33992 | -0.12913 | 23814 ft | 359 kts | 282° |
| 2026-04-29 18:18 | 46.34585 | -0.16416 | 23413 ft | 357 kts | 282° |
| 2026-04-29 18:19 | 46.35174 | -0.19897 | 23002 ft | 355 kts | 282° |
| 2026-04-29 18:19 | 46.35758 | -0.23360 | 22595 ft | 353 kts | 282° |
| 2026-04-29 18:19 | 46.36340 | -0.26811 | 22193 ft | 351 kts | 282° |
| 2026-04-29 18:19 | 46.36917 | -0.30245 | 21773 ft | 350 kts | 282° |
| 2026-04-29 18:20 | 46.37491 | -0.33662 | 21358 ft | 349 kts | 282° |
| 2026-04-29 18:20 | 46.38055 | -0.37027 | 20926 ft | 348 kts | 282° |
| 2026-04-29 18:20 | 46.38622 | -0.40430 | 20517 ft | 347 kts | 282° |
| 2026-04-29 18:20 | 46.39194 | -0.43862 | 20120 ft | 345 kts | 282° |
| 2026-04-29 18:21 | 46.39760 | -0.47235 | 19729 ft | 344 kts | 282° |
| 2026-04-29 18:21 | 46.40321 | -0.50600 | 19334 ft | 343 kts | 282° |
| 2026-04-29 18:21 | 46.40871 | -0.53913 | 18955 ft | 343 kts | 282° |
| 2026-04-29 18:21 | 46.41424 | -0.57269 | 18580 ft | 342 kts | 282° |
| 2026-04-29 18:22 | 46.41976 | -0.60611 | 18217 ft | 341 kts | 282° |
| 2026-04-29 18:22 | 46.42559 | -0.63954 | 17851 ft | 341 kts | 286° |
| 2026-04-29 18:22 | 46.43606 | -0.67037 | 17486 ft | 343 kts | 306° |
| 2026-04-29 18:22 | 46.45261 | -0.69527 | 17132 ft | 343 kts | 317° |
| 2026-04-29 18:23 | 46.47072 | -0.71793 | 16772 ft | 343 kts | 319° |
| 2026-04-29 18:23 | 46.48882 | -0.74040 | 16429 ft | 342 kts | 319° |
| 2026-04-29 18:23 | 46.50675 | -0.76302 | 16089 ft | 341 kts | 318° |
| 2026-04-29 18:23 | 46.52455 | -0.78571 | 15756 ft | 340 kts | 318° |
| 2026-04-29 18:24 | 46.54201 | -0.80808 | 15425 ft | 339 kts | 317° |
| 2026-04-29 18:24 | 46.55962 | -0.83070 | 15088 ft | 337 kts | 317° |
| 2026-04-29 18:24 | 46.57588 | -0.85505 | 14733 ft | 335 kts | 303° |
| 2026-04-29 18:24 | 46.58503 | -0.88557 | 14385 ft | 329 kts | 281° |
| 2026-04-29 18:25 | 46.58712 | -0.91840 | 14064 ft | 325 kts | 269° |
| 2026-04-29 18:25 | 46.58737 | -0.95118 | 13741 ft | 324 kts | 269° |
| 2026-04-29 18:25 | 46.58777 | -0.98382 | 13413 ft | 323 kts | 270° |
| 2026-04-29 18:25 | 46.58840 | -1.01640 | 13081 ft | 323 kts | 270° |
| 2026-04-29 18:26 | 46.58921 | -1.04897 | 12748 ft | 322 kts | 270° |
| 2026-04-29 18:26 | 46.59013 | -1.08142 | 12412 ft | 319 kts | 271° |
| 2026-04-29 18:26 | 46.59103 | -1.11367 | 12078 ft | 320 kts | 271° |
| 2026-04-29 18:26 | 46.59194 | -1.14588 | 11735 ft | 316 kts | 270° |
| 2026-04-29 18:27 | 46.59284 | -1.17748 | 11393 ft | 310 kts | 270° |
| 2026-04-29 18:27 | 46.59375 | -1.20845 | 11060 ft | 305 kts | 271° |
| 2026-04-29 18:27 | 46.59463 | -1.23895 | 10731 ft | 299 kts | 270° |
| 2026-04-29 18:27 | 46.59545 | -1.26901 | 10411 ft | 298 kts | 271° |
| 2026-04-29 18:28 | 46.59632 | -1.29910 | 10103 ft | 297 kts | 270° |
| 2026-04-29 18:28 | 46.59714 | -1.32902 | 9805 ft | 295 kts | 271° |
| 2026-04-29 18:28 | 46.60018 | -1.35856 | 9484 ft | 297 kts | 287° |
| 2026-04-29 18:28 | 46.61027 | -1.38462 | 9162 ft | 298 kts | 311° |
| 2026-04-29 18:29 | 46.62668 | -1.40260 | 8851 ft | 297 kts | 336° |
| 2026-04-29 18:29 | 46.63956 | -1.40914 | 8655 ft | 296 kts | 345° |
| 2026-04-29 18:29 | 46.66604 | -1.41842 | 8249 ft | 295 kts | 347° |
| 2026-04-29 18:29 | 46.68606 | -1.42540 | 7934 ft | 296 kts | 347° |
| 2026-04-29 18:30 | 46.70600 | -1.43264 | 7629 ft | 295 kts | 346° |
| 2026-04-29 18:30 | 46.72584 | -1.44010 | 7320 ft | 294 kts | 346° |
| 2026-04-29 18:30 | 46.74567 | -1.44786 | 6991 ft | 295 kts | 346° |
| 2026-04-29 18:30 | 46.76535 | -1.45562 | 6665 ft | 290 kts | 346° |
| 2026-04-29 18:31 | 46.78474 | -1.46330 | 6336 ft | 287 kts | 346° |
| 2026-04-29 18:31 | 46.80407 | -1.47095 | 6012 ft | 288 kts | 346° |
| 2026-04-29 18:31 | 46.82350 | -1.47863 | 5687 ft | 288 kts | 346° |
| 2026-04-29 18:31 | 46.84275 | -1.48629 | 5444 ft | 283 kts | 346° |
| 2026-04-29 18:32 | 46.86144 | -1.49370 | 5287 ft | 273 kts | 346° |
| 2026-04-29 18:32 | 46.89672 | -1.50772 | 5024 ft | 252 kts | 345° |
| 2026-04-29 18:32 | 46.91172 | -1.52044 | 4748 ft | 252 kts | 311° |
| 2026-04-29 18:33 | 46.91867 | -1.54330 | 4465 ft | 249 kts | 271° |
| 2026-04-29 18:33 | 46.91457 | -1.56710 | 4183 ft | 243 kts | 232° |
| 2026-04-29 18:33 | 46.90163 | -1.58181 | 3899 ft | 237 kts | 202° |
| 2026-04-29 18:33 | 46.88868 | -1.59673 | 3552 ft | 242 kts | 228° |
| 2026-04-29 18:34 | 46.87736 | -1.61482 | 3191 ft | 243 kts | 232° |
| 2026-04-29 18:34 | 46.87439 | -1.62159 | 3093 ft | 243 kts | 242° |
| 2026-04-29 18:34 | 46.87225 | -1.66223 | 2984 ft | 246 kts | 284° |
| 2026-04-29 18:34 | 46.87910 | -1.68454 | 2989 ft | 245 kts | 309° |
| 2026-04-29 18:35 | 46.89105 | -1.70216 | 2998 ft | 244 kts | 320° |
| 2026-04-29 18:35 | 46.90389 | -1.71833 | 3006 ft | 243 kts | 321° |
| 2026-04-29 18:35 | 46.91628 | -1.73394 | 2997 ft | 223 kts | 321° |
| 2026-04-29 18:35 | 46.92770 | -1.74839 | 2984 ft | 209 kts | 321° |
| 2026-04-29 18:36 | 46.93841 | -1.76000 | 2996 ft | 176 kts | 340° |
| 2026-04-29 18:36 | 46.94972 | -1.76258 | 2975 ft | 161 kts | 14° |
| 2026-04-29 18:36 | 46.96011 | -1.75737 | 2992 ft | 156 kts | 29° |
| 2026-04-29 18:36 | 46.96983 | -1.75033 | 2996 ft | 156 kts | 31° |
| 2026-04-29 18:37 | 46.97949 | -1.74310 | 2998 ft | 156 kts | 31° |
| 2026-04-29 18:37 | 46.98913 | -1.73581 | 2998 ft | 156 kts | 31° |
| 2026-04-29 18:37 | 46.99875 | -1.72850 | 3025 ft | 156 kts | 32° |
| 2026-04-29 18:37 | 47.00800 | -1.72147 | 2967 ft | 140 kts | 32° |
| 2026-04-29 18:38 | 47.01643 | -1.71504 | 2823 ft | 138 kts | 32° |
| 2026-04-29 18:38 | 47.02496 | -1.70856 | 2653 ft | 138 kts | 32° |
| 2026-04-29 18:38 | 47.03351 | -1.70205 | 2470 ft | 138 kts | 31° |
| 2026-04-29 18:38 | 47.04210 | -1.69550 | 2282 ft | 138 kts | 31° |
| 2026-04-29 18:39 | 47.05065 | -1.68898 | 2097 ft | 139 kts | 30° |
| 2026-04-29 18:39 | 47.05633 | -1.68466 | 1976 ft | 138 kts | 30° |
| 2026-04-29 18:39 | 47.06489 | -1.67813 | 1790 ft | 138 kts | 29° |
| 2026-04-29 18:39 | 47.07341 | -1.67164 | 1614 ft | 138 kts | 29° |
| 2026-04-29 18:40 | 47.08191 | -1.66514 | 1423 ft | 138 kts | 29° |
| 2026-04-29 18:40 | 47.09041 | -1.65866 | 1244 ft | 137 kts | 28° |
| 2026-04-29 18:40 | 47.09885 | -1.65221 | 1057 ft | 137 kts | 28° |
| 2026-04-29 18:40 | 47.10728 | -1.64578 | 877 ft | 136 kts | 28° |
| 2026-04-29 18:41 | 47.13239 | -1.62662 | 308 ft | 135 kts | 29° |
| 2026-04-29 18:41 | 47.14063 | -1.62016 | 136 ft | 134 kts | 27° |
| 2026-04-29 18:42 | 47.14832 | -1.61431 | 93 ft | 104 kts | 25° |
| 2026-04-29 18:42 | 47.15325 | -1.61069 | 92 ft | 54 kts | 27° |
| 2026-04-29 18:42 | 47.15511 | -1.60923 | 92 ft | 6 kts | 26° |
| 2026-04-29 18:42 | 47.15534 | -1.60907 | 93 ft | 12 kts | 26° |
| 2026-04-29 18:43 | 47.15616 | -1.60848 | 92 ft | 14 kts | 28° |
| 2026-04-29 18:43 | 47.15670 | -1.60730 | 93 ft | 16 kts | 111° |
| 2026-04-29 18:43 | 47.15661 | -1.60704 | 93 ft | 0 kts | 127° |
| 2026-04-29 18:44 | 47.15655 | -1.60693 | 91 ft | 10 kts | 127° |
| 2026-04-29 18:44 | 47.15640 | -1.60577 | 91 ft | 14 kts | 54° |
| 2026-04-29 18:44 | 47.15711 | -1.60493 | 95 ft | 11 kts | 61° |
| 2026-04-29 18:44 | 47.15696 | -1.60400 | 97 ft | 7 kts | 135° |
| 2026-04-29 18:45 | 47.15676 | -1.60332 | 95 ft | 9 kts | 67° |
| 2026-04-29 18:45 | 47.15687 | -1.60308 | 95 ft | 0 kts | 51° |
| 2026-04-29 18:46 | 47.15705 | -1.60280 | 96 ft | 10 kts | 43° |
| 2026-04-29 18:46 | 47.15718 | -1.60262 | 95 ft | 4 kts | 42° |